sensor_id;sensor_type;location;lat;lon;timestamp;P1;durP1;ratioP1;P2;durP2;ratioP2
30647;SDS011;17683;53.360;9.736;2023-03-20T00:03:41;37.25;;;22.67;;
30647;SDS011;17683;53.360;9.736;2023-03-20T00:06:12;39.63;;;23.23;;
30647;SDS011;17683;53.360;9.736;2023-03-20T00:08:40;35.60;;;24.25;;
30647;SDS011;17683;53.360;9.736;2023-03-20T00:11:10;36.67;;;23.42;;
30647;SDS011;17683;53.360;9.736;2023-03-20T00:13:50;40.25;;;23.30;;
30647;SDS011;17683;53.360;9.736;2023-03-20T00:16:20;41.22;;;25.85;;
30647;SDS011;17683;53.360;9.736;2023-03-20T00:18:48;36.08;;;21.73;;
30647;SDS011;17683;53.360;9.736;2023-03-20T00:21:18;42.83;;;25.52;;
30647;SDS011;17683;53.360;9.736;2023-03-20T00:23:43;38.63;;;24.38;;
30647;SDS011;17683;53.360;9.736;2023-03-20T00:26:13;37.83;;;23.85;;
30647;SDS011;17683;53.360;9.736;2023-03-20T00:28:51;35.65;;;24.30;;
30647;SDS011;17683;53.360;9.736;2023-03-20T00:33:46;41.38;;;25.17;;
30647;SDS011;17683;53.360;9.736;2023-03-20T00:36:11;40.63;;;24.65;;
30647;SDS011;17683;53.360;9.736;2023-03-20T00:38:37;44.30;;;26.42;;
30647;SDS011;17683;53.360;9.736;2023-03-20T00:41:07;42.53;;;26.65;;
30647;SDS011;17683;53.360;9.736;2023-03-20T00:46:58;39.20;;;24.67;;
30647;SDS011;17683;53.360;9.736;2023-03-20T00:49:26;44.65;;;25.42;;
30647;SDS011;17683;53.360;9.736;2023-03-20T00:51:54;43.90;;;25.02;;
30647;SDS011;17683;53.360;9.736;2023-03-20T00:54:22;45.33;;;25.85;;
30647;SDS011;17683;53.360;9.736;2023-03-20T00:56:50;49.25;;;29.58;;
30647;SDS011;17683;53.360;9.736;2023-03-20T00:59:22;42.88;;;26.67;;
30647;SDS011;17683;53.360;9.736;2023-03-20T01:01:50;41.95;;;26.77;;
30647;SDS011;17683;53.360;9.736;2023-03-20T01:04:17;46.83;;;26.95;;
30647;SDS011;17683;53.360;9.736;2023-03-20T01:06:44;47.10;;;26.48;;
30647;SDS011;17683;53.360;9.736;2023-03-20T01:09:11;47.90;;;27.23;;
30647;SDS011;17683;53.360;9.736;2023-03-20T01:11:37;43.72;;;25.65;;
30647;SDS011;17683;53.360;9.736;2023-03-20T01:14:04;39.45;;;25.27;;
30647;SDS011;17683;53.360;9.736;2023-03-20T01:16:35;40.88;;;24.90;;
30647;SDS011;17683;53.360;9.736;2023-03-20T01:19:01;44.05;;;25.30;;
30647;SDS011;17683;53.360;9.736;2023-03-20T01:21:27;43.00;;;26.17;;
30647;SDS011;17683;53.360;9.736;2023-03-20T01:23:52;43.53;;;25.83;;
30647;SDS011;17683;53.360;9.736;2023-03-20T01:26:32;50.13;;;26.15;;
30647;SDS011;17683;53.360;9.736;2023-03-20T01:29:04;46.20;;;27.02;;
30647;SDS011;17683;53.360;9.736;2023-03-20T01:31:47;48.20;;;27.65;;
30647;SDS011;17683;53.360;9.736;2023-03-20T01:34:13;42.25;;;26.95;;
30647;SDS011;17683;53.360;9.736;2023-03-20T01:36:40;48.40;;;28.00;;
30647;SDS011;17683;53.360;9.736;2023-03-20T01:39:13;43.80;;;25.60;;
30647;SDS011;17683;53.360;9.736;2023-03-20T01:41:39;43.88;;;25.63;;
30647;SDS011;17683;53.360;9.736;2023-03-20T01:44:14;46.78;;;26.60;;
30647;SDS011;17683;53.360;9.736;2023-03-20T01:46:46;47.85;;;27.70;;
30647;SDS011;17683;53.360;9.736;2023-03-20T01:51:45;48.42;;;27.42;;
30647;SDS011;17683;53.360;9.736;2023-03-20T01:54:22;47.63;;;27.92;;
30647;SDS011;17683;53.360;9.736;2023-03-20T01:59:55;47.40;;;25.50;;
30647;SDS011;17683;53.360;9.736;2023-03-20T02:02:33;48.83;;;27.17;;
30647;SDS011;17683;53.360;9.736;2023-03-20T02:05:03;49.60;;;27.05;;
30647;SDS011;17683;53.360;9.736;2023-03-20T02:07:35;48.20;;;26.42;;
30647;SDS011;17683;53.360;9.736;2023-03-20T02:10:07;50.97;;;26.88;;
30647;SDS011;17683;53.360;9.736;2023-03-20T02:12:34;51.03;;;26.48;;
30647;SDS011;17683;53.360;9.736;2023-03-20T02:15:02;56.53;;;27.63;;
30647;SDS011;17683;53.360;9.736;2023-03-20T02:17:29;48.85;;;26.60;;
30647;SDS011;17683;53.360;9.736;2023-03-20T02:41:39;41.95;;;24.25;;
30647;SDS011;17683;53.360;9.736;2023-03-20T02:44:18;39.60;;;23.85;;
30647;SDS011;17683;53.360;9.736;2023-03-20T02:47:18;46.53;;;23.98;;
30647;SDS011;17683;53.360;9.736;2023-03-20T02:50:09;39.85;;;22.92;;
30647;SDS011;17683;53.360;9.736;2023-03-20T02:53:29;42.83;;;22.52;;
30647;SDS011;17683;53.360;9.736;2023-03-20T02:56:28;33.83;;;20.23;;
30647;SDS011;17683;53.360;9.736;2023-03-20T03:01:51;34.58;;;20.50;;
30647;SDS011;17683;53.360;9.736;2023-03-20T03:04:52;35.00;;;19.98;;
30647;SDS011;17683;53.360;9.736;2023-03-20T03:07:23;30.10;;;18.40;;
30647;SDS011;17683;53.360;9.736;2023-03-20T03:12:25;36.78;;;19.67;;
30647;SDS011;17683;53.360;9.736;2023-03-20T03:14:56;30.50;;;17.88;;
30647;SDS011;17683;53.360;9.736;2023-03-20T03:17:25;34.65;;;19.00;;
30647;SDS011;17683;53.360;9.736;2023-03-20T03:19:57;31.92;;;17.67;;
30647;SDS011;17683;53.360;9.736;2023-03-20T03:22:26;32.38;;;18.67;;
30647;SDS011;17683;53.360;9.736;2023-03-20T03:24:53;31.40;;;17.70;;
30647;SDS011;17683;53.360;9.736;2023-03-20T03:27:31;31.10;;;17.63;;
30647;SDS011;17683;53.360;9.736;2023-03-20T03:30:03;25.30;;;16.95;;
30647;SDS011;17683;53.360;9.736;2023-03-20T03:35:52;27.15;;;14.48;;
30647;SDS011;17683;53.360;9.736;2023-03-20T03:38:29;21.40;;;13.82;;
30647;SDS011;17683;53.360;9.736;2023-03-20T03:43:42;20.40;;;12.43;;
30647;SDS011;17683;53.360;9.736;2023-03-20T03:46:11;17.17;;;11.07;;
30647;SDS011;17683;53.360;9.736;2023-03-20T03:48:44;23.33;;;13.20;;
30647;SDS011;17683;53.360;9.736;2023-03-20T03:51:17;21.48;;;11.68;;
30647;SDS011;17683;53.360;9.736;2023-03-20T03:53:48;18.15;;;11.20;;
30647;SDS011;17683;53.360;9.736;2023-03-20T03:56:22;18.20;;;11.23;;
30647;SDS011;17683;53.360;9.736;2023-03-20T03:58:52;18.95;;;10.98;;
30647;SDS011;17683;53.360;9.736;2023-03-20T04:01:22;16.42;;;10.70;;
30647;SDS011;17683;53.360;9.736;2023-03-20T04:03:54;17.38;;;10.18;;
30647;SDS011;17683;53.360;9.736;2023-03-20T04:06:25;17.23;;;9.40;;
30647;SDS011;17683;53.360;9.736;2023-03-20T04:08:52;16.70;;;10.32;;
30647;SDS011;17683;53.360;9.736;2023-03-20T04:11:19;15.52;;;10.77;;
30647;SDS011;17683;53.360;9.736;2023-03-20T04:13:47;14.63;;;9.77;;
30647;SDS011;17683;53.360;9.736;2023-03-20T04:16:14;18.50;;;11.40;;
30647;SDS011;17683;53.360;9.736;2023-03-20T04:18:41;15.85;;;10.27;;
30647;SDS011;17683;53.360;9.736;2023-03-20T04:21:08;18.90;;;10.63;;
30647;SDS011;17683;53.360;9.736;2023-03-20T04:23:34;16.05;;;9.15;;
30647;SDS011;17683;53.360;9.736;2023-03-20T04:25:59;16.55;;;9.15;;
30647;SDS011;17683;53.360;9.736;2023-03-20T04:28:26;14.27;;;9.88;;
30647;SDS011;17683;53.360;9.736;2023-03-20T04:30:52;14.98;;;10.20;;
30647;SDS011;17683;53.360;9.736;2023-03-20T04:33:19;17.60;;;9.63;;
30647;SDS011;17683;53.360;9.736;2023-03-20T04:35:45;14.63;;;9.63;;
30647;SDS011;17683;53.360;9.736;2023-03-20T04:38:11;14.60;;;9.32;;
30647;SDS011;17683;53.360;9.736;2023-03-20T04:40:36;13.32;;;8.98;;
30647;SDS011;17683;53.360;9.736;2023-03-20T04:43:02;13.40;;;8.80;;
30647;SDS011;17683;53.360;9.736;2023-03-20T04:45:28;14.98;;;9.55;;
30647;SDS011;17683;53.360;9.736;2023-03-20T04:47:54;14.75;;;7.85;;
30647;SDS011;17683;53.360;9.736;2023-03-20T04:50:20;11.85;;;8.02;;
30647;SDS011;17683;53.360;9.736;2023-03-20T04:52:45;14.73;;;9.07;;
30647;SDS011;17683;53.360;9.736;2023-03-20T04:55:11;13.65;;;8.73;;
30647;SDS011;17683;53.360;9.736;2023-03-20T04:57:37;14.25;;;9.32;;
30647;SDS011;17683;53.360;9.736;2023-03-20T05:00:03;10.18;;;7.18;;
30647;SDS011;17683;53.360;9.736;2023-03-20T05:02:29;13.50;;;8.10;;
30647;SDS011;17683;53.360;9.736;2023-03-20T05:04:55;13.02;;;7.88;;
30647;SDS011;17683;53.360;9.736;2023-03-20T05:07:20;13.90;;;9.05;;
30647;SDS011;17683;53.360;9.736;2023-03-20T05:09:46;12.60;;;7.40;;
30647;SDS011;17683;53.360;9.736;2023-03-20T05:12:12;12.65;;;8.27;;
30647;SDS011;17683;53.360;9.736;2023-03-20T05:14:38;10.10;;;7.57;;
30647;SDS011;17683;53.360;9.736;2023-03-20T05:17:03;9.73;;;7.25;;
30647;SDS011;17683;53.360;9.736;2023-03-20T05:19:29;10.25;;;6.97;;
30647;SDS011;17683;53.360;9.736;2023-03-20T05:21:55;12.77;;;8.00;;
30647;SDS011;17683;53.360;9.736;2023-03-20T05:24:20;11.65;;;7.43;;
30647;SDS011;17683;53.360;9.736;2023-03-20T05:26:46;13.27;;;8.13;;
30647;SDS011;17683;53.360;9.736;2023-03-20T05:29:12;10.32;;;7.75;;
30647;SDS011;17683;53.360;9.736;2023-03-20T05:31:38;13.23;;;8.32;;
30647;SDS011;17683;53.360;9.736;2023-03-20T05:34:04;7.65;;;6.07;;
30647;SDS011;17683;53.360;9.736;2023-03-20T05:36:30;11.40;;;7.97;;
30647;SDS011;17683;53.360;9.736;2023-03-20T05:38:56;11.02;;;7.78;;
30647;SDS011;17683;53.360;9.736;2023-03-20T05:41:22;11.35;;;7.72;;
30647;SDS011;17683;53.360;9.736;2023-03-20T05:43:48;14.68;;;8.05;;
30647;SDS011;17683;53.360;9.736;2023-03-20T05:46:13;11.43;;;8.05;;
30647;SDS011;17683;53.360;9.736;2023-03-20T05:48:40;13.77;;;8.27;;
30647;SDS011;17683;53.360;9.736;2023-03-20T05:51:05;12.45;;;8.07;;
30647;SDS011;17683;53.360;9.736;2023-03-20T05:53:31;12.88;;;8.43;;
30647;SDS011;17683;53.360;9.736;2023-03-20T05:55:57;13.10;;;8.18;;
30647;SDS011;17683;53.360;9.736;2023-03-20T05:58:23;11.10;;;8.05;;
30647;SDS011;17683;53.360;9.736;2023-03-20T06:00:49;13.40;;;8.63;;
30647;SDS011;17683;53.360;9.736;2023-03-20T06:03:15;13.30;;;8.52;;
30647;SDS011;17683;53.360;9.736;2023-03-20T06:05:42;13.77;;;8.10;;
30647;SDS011;17683;53.360;9.736;2023-03-20T06:08:08;12.55;;;8.27;;
30647;SDS011;17683;53.360;9.736;2023-03-20T06:10:34;12.23;;;8.23;;
30647;SDS011;17683;53.360;9.736;2023-03-20T06:13:00;12.13;;;8.00;;
30647;SDS011;17683;53.360;9.736;2023-03-20T06:15:26;14.77;;;8.23;;
30647;SDS011;17683;53.360;9.736;2023-03-20T06:17:53;13.32;;;8.48;;
30647;SDS011;17683;53.360;9.736;2023-03-20T06:20:19;11.02;;;7.47;;
30647;SDS011;17683;53.360;9.736;2023-03-20T06:22:45;12.27;;;8.23;;
30647;SDS011;17683;53.360;9.736;2023-03-20T06:25:11;9.27;;;7.03;;
30647;SDS011;17683;53.360;9.736;2023-03-20T06:27:37;11.73;;;7.65;;
30647;SDS011;17683;53.360;9.736;2023-03-20T06:30:03;9.68;;;7.40;;
30647;SDS011;17683;53.360;9.736;2023-03-20T06:32:30;13.48;;;7.50;;
30647;SDS011;17683;53.360;9.736;2023-03-20T06:34:56;11.15;;;7.55;;
30647;SDS011;17683;53.360;9.736;2023-03-20T06:37:21;10.50;;;7.00;;
30647;SDS011;17683;53.360;9.736;2023-03-20T06:39:47;10.68;;;7.15;;
30647;SDS011;17683;53.360;9.736;2023-03-20T06:42:13;11.40;;;7.40;;
30647;SDS011;17683;53.360;9.736;2023-03-20T06:44:39;10.70;;;7.40;;
30647;SDS011;17683;53.360;9.736;2023-03-20T06:47:05;12.95;;;8.40;;
30647;SDS011;17683;53.360;9.736;2023-03-20T06:49:31;10.35;;;6.78;;
30647;SDS011;17683;53.360;9.736;2023-03-20T06:51:56;9.63;;;7.32;;
30647;SDS011;17683;53.360;9.736;2023-03-20T06:54:23;10.73;;;7.35;;
30647;SDS011;17683;53.360;9.736;2023-03-20T06:56:49;10.63;;;8.10;;
30647;SDS011;17683;53.360;9.736;2023-03-20T06:59:15;9.73;;;6.97;;
30647;SDS011;17683;53.360;9.736;2023-03-20T07:01:41;9.70;;;7.28;;
30647;SDS011;17683;53.360;9.736;2023-03-20T07:04:07;10.10;;;7.40;;
30647;SDS011;17683;53.360;9.736;2023-03-20T07:06:33;11.73;;;8.15;;
30647;SDS011;17683;53.360;9.736;2023-03-20T07:08:58;10.98;;;7.47;;
30647;SDS011;17683;53.360;9.736;2023-03-20T07:11:25;13.88;;;7.93;;
30647;SDS011;17683;53.360;9.736;2023-03-20T07:13:51;10.40;;;7.15;;
30647;SDS011;17683;53.360;9.736;2023-03-20T07:16:17;12.80;;;7.50;;
30647;SDS011;17683;53.360;9.736;2023-03-20T07:18:43;12.02;;;7.22;;
30647;SDS011;17683;53.360;9.736;2023-03-20T07:21:09;11.38;;;7.38;;
30647;SDS011;17683;53.360;9.736;2023-03-20T07:23:42;10.73;;;7.10;;
30647;SDS011;17683;53.360;9.736;2023-03-20T07:26:08;12.38;;;8.23;;
30647;SDS011;17683;53.360;9.736;2023-03-20T07:28:34;10.40;;;6.80;;
30647;SDS011;17683;53.360;9.736;2023-03-20T07:31:00;10.23;;;6.97;;
30647;SDS011;17683;53.360;9.736;2023-03-20T07:33:25;11.80;;;8.00;;
30647;SDS011;17683;53.360;9.736;2023-03-20T07:35:54;11.07;;;7.78;;
30647;SDS011;17683;53.360;9.736;2023-03-20T07:38:20;10.63;;;7.03;;
30647;SDS011;17683;53.360;9.736;2023-03-20T07:40:47;8.10;;;6.70;;
30647;SDS011;17683;53.360;9.736;2023-03-20T07:43:16;12.63;;;8.20;;
30647;SDS011;17683;53.360;9.736;2023-03-20T07:45:42;14.75;;;7.57;;
30647;SDS011;17683;53.360;9.736;2023-03-20T07:48:08;14.27;;;7.90;;
30647;SDS011;17683;53.360;9.736;2023-03-20T07:50:33;11.55;;;7.00;;
30647;SDS011;17683;53.360;9.736;2023-03-20T07:52:59;10.07;;;7.07;;
30647;SDS011;17683;53.360;9.736;2023-03-20T07:55:25;10.85;;;7.78;;
30647;SDS011;17683;53.360;9.736;2023-03-20T07:57:51;11.25;;;7.88;;
30647;SDS011;17683;53.360;9.736;2023-03-20T08:00:17;11.55;;;7.93;;
30647;SDS011;17683;53.360;9.736;2023-03-20T08:02:43;11.55;;;8.07;;
30647;SDS011;17683;53.360;9.736;2023-03-20T08:05:09;11.23;;;7.82;;
30647;SDS011;17683;53.360;9.736;2023-03-20T08:07:35;13.50;;;8.93;;
30647;SDS011;17683;53.360;9.736;2023-03-20T08:10:01;13.20;;;8.15;;
30647;SDS011;17683;53.360;9.736;2023-03-20T08:12:27;12.75;;;8.48;;
30647;SDS011;17683;53.360;9.736;2023-03-20T08:14:53;13.32;;;8.93;;
30647;SDS011;17683;53.360;9.736;2023-03-20T08:17:19;13.43;;;8.65;;
30647;SDS011;17683;53.360;9.736;2023-03-20T08:19:44;12.50;;;8.82;;
30647;SDS011;17683;53.360;9.736;2023-03-20T08:22:10;12.40;;;8.60;;
30647;SDS011;17683;53.360;9.736;2023-03-20T08:24:36;13.27;;;8.32;;
30647;SDS011;17683;53.360;9.736;2023-03-20T08:27:02;13.43;;;8.90;;
30647;SDS011;17683;53.360;9.736;2023-03-20T08:29:28;13.45;;;9.25;;
30647;SDS011;17683;53.360;9.736;2023-03-20T08:31:54;15.63;;;9.30;;
30647;SDS011;17683;53.360;9.736;2023-03-20T08:34:20;14.48;;;9.13;;
30647;SDS011;17683;53.360;9.736;2023-03-20T08:36:45;13.70;;;8.57;;
30647;SDS011;17683;53.360;9.736;2023-03-20T08:39:11;12.98;;;9.35;;
30647;SDS011;17683;53.360;9.736;2023-03-20T08:41:37;13.38;;;8.43;;
30647;SDS011;17683;53.360;9.736;2023-03-20T08:44:03;12.48;;;8.77;;
30647;SDS011;17683;53.360;9.736;2023-03-20T08:46:30;13.38;;;8.27;;
30647;SDS011;17683;53.360;9.736;2023-03-20T08:48:56;17.27;;;9.10;;
30647;SDS011;17683;53.360;9.736;2023-03-20T08:51:23;13.45;;;8.68;;
30647;SDS011;17683;53.360;9.736;2023-03-20T08:53:49;12.48;;;8.75;;
30647;SDS011;17683;53.360;9.736;2023-03-20T08:56:15;15.57;;;8.85;;
30647;SDS011;17683;53.360;9.736;2023-03-20T08:58:40;12.00;;;9.45;;
30647;SDS011;17683;53.360;9.736;2023-03-20T09:01:07;13.30;;;9.15;;
30647;SDS011;17683;53.360;9.736;2023-03-20T09:03:34;14.32;;;8.82;;
30647;SDS011;17683;53.360;9.736;2023-03-20T09:06:01;13.88;;;8.57;;
30647;SDS011;17683;53.360;9.736;2023-03-20T09:08:30;13.55;;;7.95;;
30647;SDS011;17683;53.360;9.736;2023-03-20T09:10:56;13.88;;;8.60;;
30647;SDS011;17683;53.360;9.736;2023-03-20T09:13:21;11.82;;;8.00;;
30647;SDS011;17683;53.360;9.736;2023-03-20T09:15:47;15.68;;;9.10;;
30647;SDS011;17683;53.360;9.736;2023-03-20T09:18:13;13.82;;;8.55;;
30647;SDS011;17683;53.360;9.736;2023-03-20T09:20:39;9.60;;;7.80;;
30647;SDS011;17683;53.360;9.736;2023-03-20T09:23:05;19.27;;;9.65;;
30647;SDS011;17683;53.360;9.736;2023-03-20T09:25:30;13.02;;;8.85;;
30647;SDS011;17683;53.360;9.736;2023-03-20T09:27:56;16.08;;;9.27;;
30647;SDS011;17683;53.360;9.736;2023-03-20T09:30:22;17.45;;;8.18;;
30647;SDS011;17683;53.360;9.736;2023-03-20T09:32:49;13.68;;;8.63;;
30647;SDS011;17683;53.360;9.736;2023-03-20T09:35:15;16.80;;;9.23;;
30647;SDS011;17683;53.360;9.736;2023-03-20T09:37:42;15.88;;;8.88;;
30647;SDS011;17683;53.360;9.736;2023-03-20T09:40:12;14.98;;;9.30;;
30647;SDS011;17683;53.360;9.736;2023-03-20T09:48:48;12.18;;;8.55;;
30647;SDS011;17683;53.360;9.736;2023-03-20T09:51:35;14.27;;;7.82;;
30647;SDS011;17683;53.360;9.736;2023-03-20T09:54:20;12.43;;;9.95;;
30647;SDS011;17683;53.360;9.736;2023-03-20T09:56:47;16.38;;;9.35;;
30647;SDS011;17683;53.360;9.736;2023-03-20T09:59:15;13.68;;;9.65;;
30647;SDS011;17683;53.360;9.736;2023-03-20T10:01:47;15.63;;;9.35;;
30647;SDS011;17683;53.360;9.736;2023-03-20T10:04:17;17.53;;;9.03;;
30647;SDS011;17683;53.360;9.736;2023-03-20T10:06:43;11.35;;;9.00;;
30647;SDS011;17683;53.360;9.736;2023-03-20T10:09:17;15.35;;;8.60;;
30647;SDS011;17683;53.360;9.736;2023-03-20T10:14:15;15.68;;;8.25;;
30647;SDS011;17683;53.360;9.736;2023-03-20T10:24:15;15.68;;;8.35;;
30647;SDS011;17683;53.360;9.736;2023-03-20T10:26:49;11.10;;;7.28;;
30647;SDS011;17683;53.360;9.736;2023-03-20T10:31:56;14.65;;;7.88;;
30647;SDS011;17683;53.360;9.736;2023-03-20T10:34:51;10.35;;;7.18;;
30647;SDS011;17683;53.360;9.736;2023-03-20T10:37:26;17.05;;;8.35;;
30647;SDS011;17683;53.360;9.736;2023-03-20T10:42:41;23.13;;;9.10;;
30647;SDS011;17683;53.360;9.736;2023-03-20T10:48:22;12.82;;;7.82;;
30647;SDS011;17683;53.360;9.736;2023-03-20T10:50:52;15.32;;;8.02;;
30647;SDS011;17683;53.360;9.736;2023-03-20T10:56:04;11.05;;;7.38;;
30647;SDS011;17683;53.360;9.736;2023-03-20T10:58:33;13.80;;;6.95;;
30647;SDS011;17683;53.360;9.736;2023-03-20T11:01:03;12.27;;;6.60;;
30647;SDS011;17683;53.360;9.736;2023-03-20T11:03:31;16.27;;;6.60;;
30647;SDS011;17683;53.360;9.736;2023-03-20T11:08:41;12.98;;;6.38;;
30647;SDS011;17683;53.360;9.736;2023-03-20T11:11:11;10.43;;;6.80;;
30647;SDS011;17683;53.360;9.736;2023-03-20T11:13:38;12.07;;;7.10;;
30647;SDS011;17683;53.360;9.736;2023-03-20T11:16:08;9.98;;;6.30;;
30647;SDS011;17683;53.360;9.736;2023-03-20T11:18:43;10.70;;;6.32;;
30647;SDS011;17683;53.360;9.736;2023-03-20T11:21:14;9.38;;;7.03;;
30647;SDS011;17683;53.360;9.736;2023-03-20T11:23:44;10.68;;;6.03;;
30647;SDS011;17683;53.360;9.736;2023-03-20T11:26:15;10.65;;;7.50;;
30647;SDS011;17683;53.360;9.736;2023-03-20T11:31:15;14.13;;;7.40;;
30647;SDS011;17683;53.360;9.736;2023-03-20T11:33:44;15.23;;;7.70;;
30647;SDS011;17683;53.360;9.736;2023-03-20T11:36:25;9.70;;;6.57;;
30647;SDS011;17683;53.360;9.736;2023-03-20T11:39:00;9.07;;;6.85;;
30647;SDS011;17683;53.360;9.736;2023-03-20T11:41:41;10.02;;;6.25;;
30647;SDS011;17683;53.360;9.736;2023-03-20T11:44:22;9.70;;;7.03;;
30647;SDS011;17683;53.360;9.736;2023-03-20T11:49:27;14.60;;;7.50;;
30647;SDS011;17683;53.360;9.736;2023-03-20T11:52:13;13.73;;;7.40;;
30647;SDS011;17683;53.360;9.736;2023-03-20T11:54:45;16.15;;;7.70;;
30647;SDS011;17683;53.360;9.736;2023-03-20T12:02:39;12.38;;;6.88;;
30647;SDS011;17683;53.360;9.736;2023-03-20T12:07:54;14.60;;;7.95;;
30647;SDS011;17683;53.360;9.736;2023-03-20T12:10:22;12.73;;;7.80;;
30647;SDS011;17683;53.360;9.736;2023-03-20T12:12:53;13.20;;;7.85;;
30647;SDS011;17683;53.360;9.736;2023-03-20T12:15:24;12.55;;;7.45;;
30647;SDS011;17683;53.360;9.736;2023-03-20T12:23:42;11.75;;;7.35;;
30647;SDS011;17683;53.360;9.736;2023-03-20T12:26:23;13.75;;;7.10;;
30647;SDS011;17683;53.360;9.736;2023-03-20T12:29:09;13.07;;;7.40;;
30647;SDS011;17683;53.360;9.736;2023-03-20T12:34:36;16.65;;;7.57;;
30647;SDS011;17683;53.360;9.736;2023-03-20T12:37:08;14.02;;;6.68;;
30647;SDS011;17683;53.360;9.736;2023-03-20T12:39:37;13.63;;;7.85;;
30647;SDS011;17683;53.360;9.736;2023-03-20T12:50:41;11.23;;;6.75;;
30647;SDS011;17683;53.360;9.736;2023-03-20T12:53:12;13.95;;;6.63;;
30647;SDS011;17683;53.360;9.736;2023-03-20T12:58:46;12.93;;;6.60;;
30647;SDS011;17683;53.360;9.736;2023-03-20T13:01:30;12.57;;;6.95;;
30647;SDS011;17683;53.360;9.736;2023-03-20T13:19:46;12.63;;;6.07;;
30647;SDS011;17683;53.360;9.736;2023-03-20T13:28:08;8.93;;;5.60;;
30647;SDS011;17683;53.360;9.736;2023-03-20T13:30:39;9.00;;;5.63;;
30647;SDS011;17683;53.360;9.736;2023-03-20T13:36:13;11.73;;;5.28;;
30647;SDS011;17683;53.360;9.736;2023-03-20T13:38:56;9.93;;;5.45;;
30647;SDS011;17683;53.360;9.736;2023-03-20T13:41:41;12.98;;;6.05;;
30647;SDS011;17683;53.360;9.736;2023-03-20T13:44:11;7.82;;;4.82;;
30647;SDS011;17683;53.360;9.736;2023-03-20T13:49:36;11.43;;;5.65;;
30647;SDS011;17683;53.360;9.736;2023-03-20T14:00:39;11.63;;;5.28;;
30647;SDS011;17683;53.360;9.736;2023-03-20T14:03:31;12.05;;;5.38;;
30647;SDS011;17683;53.360;9.736;2023-03-20T14:06:15;6.47;;;4.90;;
30647;SDS011;17683;53.360;9.736;2023-03-20T14:08:47;10.93;;;5.18;;
30647;SDS011;17683;53.360;9.736;2023-03-20T14:13:55;8.02;;;4.93;;
30647;SDS011;17683;53.360;9.736;2023-03-20T14:16:26;9.25;;;5.30;;
30647;SDS011;17683;53.360;9.736;2023-03-20T14:21:49;11.48;;;6.63;;
30647;SDS011;17683;53.360;9.736;2023-03-20T14:24:17;11.15;;;5.32;;
30647;SDS011;17683;53.360;9.736;2023-03-20T14:26:57;11.60;;;5.90;;
30647;SDS011;17683;53.360;9.736;2023-03-20T14:32:01;8.75;;;5.65;;
30647;SDS011;17683;53.360;9.736;2023-03-20T14:40:16;11.00;;;5.78;;
30647;SDS011;17683;53.360;9.736;2023-03-20T14:42:54;8.70;;;5.03;;
30647;SDS011;17683;53.360;9.736;2023-03-20T14:45:30;9.55;;;5.78;;
30647;SDS011;17683;53.360;9.736;2023-03-20T14:48:30;8.13;;;5.75;;
30647;SDS011;17683;53.360;9.736;2023-03-20T14:56:49;14.80;;;6.15;;
30647;SDS011;17683;53.360;9.736;2023-03-20T14:59:17;13.43;;;6.15;;
30647;SDS011;17683;53.360;9.736;2023-03-20T15:01:57;13.23;;;7.35;;
30647;SDS011;17683;53.360;9.736;2023-03-20T15:07:00;10.75;;;6.32;;
30647;SDS011;17683;53.360;9.736;2023-03-20T15:09:30;11.50;;;7.57;;
30647;SDS011;17683;53.360;9.736;2023-03-20T15:11:58;13.77;;;7.20;;
30647;SDS011;17683;53.360;9.736;2023-03-20T15:14:29;14.43;;;6.95;;
30647;SDS011;17683;53.360;9.736;2023-03-20T15:17:21;10.73;;;6.97;;
30647;SDS011;17683;53.360;9.736;2023-03-20T15:19:57;12.47;;;7.13;;
30647;SDS011;17683;53.360;9.736;2023-03-20T15:22:28;9.68;;;6.93;;
30647;SDS011;17683;53.360;9.736;2023-03-20T15:24:54;10.07;;;7.00;;
30647;SDS011;17683;53.360;9.736;2023-03-20T15:27:21;12.10;;;6.65;;
30647;SDS011;17683;53.360;9.736;2023-03-20T15:29:53;11.80;;;6.85;;
30647;SDS011;17683;53.360;9.736;2023-03-20T15:32:20;12.90;;;7.35;;
30647;SDS011;17683;53.360;9.736;2023-03-20T15:34:47;11.07;;;7.07;;
30647;SDS011;17683;53.360;9.736;2023-03-20T15:37:15;14.55;;;7.60;;
30647;SDS011;17683;53.360;9.736;2023-03-20T15:39:45;14.05;;;7.18;;
30647;SDS011;17683;53.360;9.736;2023-03-20T15:42:14;14.95;;;6.95;;
30647;SDS011;17683;53.360;9.736;2023-03-20T15:44:42;11.30;;;7.68;;
30647;SDS011;17683;53.360;9.736;2023-03-20T15:47:16;12.50;;;7.30;;
30647;SDS011;17683;53.360;9.736;2023-03-20T15:49:50;13.82;;;7.20;;
30647;SDS011;17683;53.360;9.736;2023-03-20T15:52:23;14.47;;;6.90;;
30647;SDS011;17683;53.360;9.736;2023-03-20T15:54:51;11.25;;;6.20;;
30647;SDS011;17683;53.360;9.736;2023-03-20T15:57:24;13.48;;;7.65;;
30647;SDS011;17683;53.360;9.736;2023-03-20T15:59:56;12.65;;;7.65;;
30647;SDS011;17683;53.360;9.736;2023-03-20T16:02:23;11.35;;;7.43;;
30647;SDS011;17683;53.360;9.736;2023-03-20T16:04:50;11.25;;;7.10;;
30647;SDS011;17683;53.360;9.736;2023-03-20T16:07:22;13.48;;;8.00;;
30647;SDS011;17683;53.360;9.736;2023-03-20T16:09:52;11.57;;;6.75;;
30647;SDS011;17683;53.360;9.736;2023-03-20T16:12:18;17.27;;;7.70;;
30647;SDS011;17683;53.360;9.736;2023-03-20T16:14:45;9.30;;;6.47;;
30647;SDS011;17683;53.360;9.736;2023-03-20T16:17:12;15.50;;;7.95;;
30647;SDS011;17683;53.360;9.736;2023-03-20T16:19:40;11.18;;;6.72;;
30647;SDS011;17683;53.360;9.736;2023-03-20T16:22:16;13.80;;;6.70;;
30647;SDS011;17683;53.360;9.736;2023-03-20T16:24:50;11.27;;;6.90;;
30647;SDS011;17683;53.360;9.736;2023-03-20T16:27:36;11.95;;;7.20;;
30647;SDS011;17683;53.360;9.736;2023-03-20T16:30:05;10.43;;;6.75;;
30647;SDS011;17683;53.360;9.736;2023-03-20T16:32:40;12.80;;;7.75;;
30647;SDS011;17683;53.360;9.736;2023-03-20T16:35:16;19.13;;;7.80;;
30647;SDS011;17683;53.360;9.736;2023-03-20T16:37:47;11.02;;;6.82;;
30647;SDS011;17683;53.360;9.736;2023-03-20T16:40:18;13.05;;;8.77;;
30647;SDS011;17683;53.360;9.736;2023-03-20T16:42:45;9.70;;;7.60;;
30647;SDS011;17683;53.360;9.736;2023-03-20T16:48:02;14.63;;;7.60;;
30647;SDS011;17683;53.360;9.736;2023-03-20T16:50:42;15.20;;;7.72;;
30647;SDS011;17683;53.360;9.736;2023-03-20T16:53:16;10.18;;;7.40;;
30647;SDS011;17683;53.360;9.736;2023-03-20T16:55:50;17.00;;;7.38;;
30647;SDS011;17683;53.360;9.736;2023-03-20T16:58:20;13.38;;;8.60;;
30647;SDS011;17683;53.360;9.736;2023-03-20T17:00:59;12.32;;;6.95;;
30647;SDS011;17683;53.360;9.736;2023-03-20T17:03:29;14.55;;;7.30;;
30647;SDS011;17683;53.360;9.736;2023-03-20T17:08:48;27.02;;;8.82;;
30647;SDS011;17683;53.360;9.736;2023-03-20T17:11:20;13.32;;;8.23;;
30647;SDS011;17683;53.360;9.736;2023-03-20T17:13:51;13.55;;;8.57;;
30647;SDS011;17683;53.360;9.736;2023-03-20T17:16:18;13.10;;;8.50;;
30647;SDS011;17683;53.360;9.736;2023-03-20T17:18:45;13.43;;;9.30;;
30647;SDS011;17683;53.360;9.736;2023-03-20T17:21:29;15.10;;;8.65;;
30647;SDS011;17683;53.360;9.736;2023-03-20T17:23:56;14.32;;;8.15;;
30647;SDS011;17683;53.360;9.736;2023-03-20T17:26:22;16.65;;;8.80;;
30647;SDS011;17683;53.360;9.736;2023-03-20T17:28:48;15.73;;;7.30;;
30647;SDS011;17683;53.360;9.736;2023-03-20T17:31:15;19.00;;;8.20;;
30647;SDS011;17683;53.360;9.736;2023-03-20T17:33:41;15.43;;;8.57;;
30647;SDS011;17683;53.360;9.736;2023-03-20T17:36:20;19.50;;;8.73;;
30647;SDS011;17683;53.360;9.736;2023-03-20T17:38:48;15.30;;;8.55;;
30647;SDS011;17683;53.360;9.736;2023-03-20T17:41:14;14.13;;;7.60;;
30647;SDS011;17683;53.360;9.736;2023-03-20T17:43:42;13.60;;;7.95;;